Time;durP1;ratioP1;P1;durP2;ratioP2;P2;SDS_P1;SDS_P2;PMS_P1;PMS_P2;Temp;Humidity;BMP_temperature;BMP_pressure;BME280_temperature;BME280_humidity;BME280_pressure;Samples;Min_cycle;Max_cycle;Signal;HPM_P1;HPM_P2
2022/08/29 00:02:20;;;;;;;154.10;92.28;;;;;;;;;;4999034;28;20216;-54
2022/08/29 00:04:46;;;;;;;115.25;73.63;;;;;;;;;;4996882;28;20231;-52
2022/08/29 00:07:12;;;;;;;120.28;80.60;;;;;;;;;;4995535;28;20208;-53
2022/08/29 00:09:38;;;;;;;132.13;83.13;;;;;;;;;;4997470;28;20680;-53
2022/08/29 00:12:04;;;;;;;162.87;90.37;;;;;;;;;;4993476;28;20944;-53
2022/08/29 00:14:30;;;;;;;114.22;78.18;;;;;;;;;;4998199;28;20240;-53
2022/08/29 00:16:56;;;;;;;122.05;81.80;;;;;;;;;;4991003;28;20224;-52
2022/08/29 00:19:22;;;;;;;103.90;72.75;;;;;;;;;;4995620;28;20641;-52
2022/08/29 00:21:48;;;;;;;183.88;93.47;;;;;;;;;;4993139;28;20622;-52
2022/08/29 00:24:15;;;;;;;131.77;85.53;;;;;;;;;;4991952;28;20205;-52
2022/08/29 00:26:41;;;;;;;169.45;115.72;;;;;;;;;;4996863;28;20246;-53
2022/08/29 00:29:07;;;;;;;181.40;121.47;;;;;;;;;;4990924;28;20237;-53
2022/08/29 00:31:33;;;;;;;146.18;107.95;;;;;;;;;;4995264;28;20224;-53
2022/08/29 00:33:59;;;;;;;168.07;115.60;;;;;;;;;;4996704;28;20843;-53
2022/08/29 00:36:25;;;;;;;158.00;111.93;;;;;;;;;;4997592;28;20192;-52
2022/08/29 00:38:51;;;;;;;201.38;120.50;;;;;;;;;;4994101;28;20755;-52
2022/08/29 00:41:17;;;;;;;211.77;127.90;;;;;;;;;;5001061;28;20220;-53
2022/08/29 00:43:43;;;;;;;225.65;131.57;;;;;;;;;;4991534;28;20224;-53
2022/08/29 00:46:28;;;;;;;262.67;146.65;;;;;;;;;;4993994;28;20699;-53
2022/08/29 00:48:56;;;;;;;254.07;132.55;;;;;;;;;;4991573;28;20685;-52
2022/08/29 00:51:22;;;;;;;258.02;136.90;;;;;;;;;;4997764;28;20204;-52
2022/08/29 00:53:49;;;;;;;243.00;136.47;;;;;;;;;;4992978;28;20697;-52
2022/08/29 00:56:16;;;;;;;246.32;137.85;;;;;;;;;;4994678;28;20249;-53
2022/08/29 00:58:45;;;;;;;255.40;132.80;;;;;;;;;;4999345;28;20319;-53
2022/08/29 01:01:11;;;;;;;210.30;123.50;;;;;;;;;;4997260;28;20213;-53
2022/08/29 01:03:38;;;;;;;254.70;142.95;;;;;;;;;;4998995;28;20201;-53
2022/08/29 01:06:05;;;;;;;210.52;122.30;;;;;;;;;;4996160;28;20174;-53
2022/08/29 01:08:31;;;;;;;191.97;117.80;;;;;;;;;;4997535;28;20791;-53
2022/08/29 01:13:44;;;;;;;247.40;143.70;;;;;;;;;;4994136;28;20244;-53
2022/08/29 01:16:10;;;;;;;233.48;138.82;;;;;;;;;;4998421;28;20299;-53
2022/08/29 01:18:37;;;;;;;200.50;125.40;;;;;;;;;;4996491;28;20750;-53
2022/08/29 01:21:03;;;;;;;195.32;124.65;;;;;;;;;;4996793;28;20185;-53
2022/08/29 01:23:31;;;;;;;197.50;126.18;;;;;;;;;;4991229;28;20213;-53
2022/08/29 01:25:58;;;;;;;241.43;136.90;;;;;;;;;;4996510;28;20223;-52
2022/08/29 01:28:25;;;;;;;204.93;123.30;;;;;;;;;;4994860;28;20223;-53
2022/08/29 01:31:03;;;;;;;176.10;110.70;;;;;;;;;;4997819;28;22549;-53
2022/08/29 01:33:37;;;;;;;149.23;105.82;;;;;;;;;;4999600;28;20210;-54
2022/08/29 01:36:03;;;;;;;181.57;112.25;;;;;;;;;;4991449;28;20287;-52
2022/08/29 01:38:29;;;;;;;170.00;107.80;;;;;;;;;;4990979;28;20309;-52
2022/08/29 01:40:57;;;;;;;231.27;125.38;;;;;;;;;;4992830;28;20311;-54
2022/08/29 01:43:23;;;;;;;208.75;116.93;;;;;;;;;;4994127;28;20299;-52
2022/08/29 01:45:49;;;;;;;199.75;115.40;;;;;;;;;;4991225;28;20712;-52
2022/08/29 01:48:16;;;;;;;152.07;102.18;;;;;;;;;;4994664;28;20188;-53
2022/08/29 01:50:42;;;;;;;161.25;107.85;;;;;;;;;;4997578;28;20220;-53
2022/08/29 01:53:08;;;;;;;155.57;106.57;;;;;;;;;;4993140;28;20213;-53
2022/08/29 01:55:34;;;;;;;203.00;117.72;;;;;;;;;;4997925;28;20293;-52
2022/08/29 01:58:00;;;;;;;151.90;99.20;;;;;;;;;;4995705;28;20300;-53
2022/08/29 02:00:25;;;;;;;141.60;96.53;;;;;;;;;;4992465;28;20195;-54
2022/08/29 02:02:51;;;;;;;155.93;101.05;;;;;;;;;;4998384;28;20260;-52
2022/08/29 02:05:22;;;;;;;174.00;108.60;;;;;;;;;;4993338;28;20271;-52
2022/08/29 02:07:48;;;;;;;133.80;95.00;;;;;;;;;;4997727;28;20228;-52
2022/08/29 02:10:14;;;;;;;133.90;94.63;;;;;;;;;;5001282;28;20232;-52
2022/08/29 02:12:42;;;;;;;136.48;97.63;;;;;;;;;;4999637;28;20212;-52
2022/08/29 02:15:08;;;;;;;140.98;101.45;;;;;;;;;;4995148;28;20217;-52
2022/08/29 02:17:35;;;;;;;151.48;103.85;;;;;;;;;;4996392;28;21159;-52
2022/08/29 02:20:02;;;;;;;141.50;100.75;;;;;;;;;;4999642;28;20231;-53
2022/08/29 02:22:28;;;;;;;186.35;116.55;;;;;;;;;;4993033;28;20212;-52
2022/08/29 02:24:54;;;;;;;162.30;106.53;;;;;;;;;;4996409;28;20585;-53
2022/08/29 02:27:20;;;;;;;171.98;109.47;;;;;;;;;;4994094;28;20180;-53
2022/08/29 02:29:46;;;;;;;165.77;104.38;;;;;;;;;;4996380;28;20248;-53
2022/08/29 02:32:13;;;;;;;174.30;105.55;;;;;;;;;;4992355;28;20212;-52
2022/08/29 02:34:42;;;;;;;183.85;115.43;;;;;;;;;;4994656;28;20616;-52
2022/08/29 02:37:08;;;;;;;200.80;129.97;;;;;;;;;;5019926;23;20244;-71
2022/08/29 02:39:34;;;;;;;170.30;117.03;;;;;;;;;;5014025;28;25077;-71
2022/08/29 02:42:00;;;;;;;154.23;114.07;;;;;;;;;;5012867;28;20185;-71
2022/08/29 02:44:26;;;;;;;156.27;114.68;;;;;;;;;;5017847;28;20346;-71
2022/08/29 02:46:52;;;;;;;164.23;116.88;;;;;;;;;;5014869;28;21053;-71
2022/08/29 02:49:18;;;;;;;161.13;113.80;;;;;;;;;;5016990;28;20224;-73
2022/08/29 02:51:44;;;;;;;181.07;122.97;;;;;;;;;;5018196;28;20276;-70
2022/08/29 02:54:11;;;;;;;144.53;111.53;;;;;;;;;;5018388;28;20182;-71
2022/08/29 02:56:37;;;;;;;187.65;125.47;;;;;;;;;;5013206;28;20207;-71
2022/08/29 02:59:04;;;;;;;137.45;109.40;;;;;;;;;;5018487;28;20216;-71
2022/08/29 03:01:30;;;;;;;160.80;110.80;;;;;;;;;;5015612;28;20210;-72
2022/08/29 03:03:56;;;;;;;176.73;115.83;;;;;;;;;;5016615;28;20337;-71
2022/08/29 03:06:22;;;;;;;165.50;114.17;;;;;;;;;;5017088;28;20450;-71
2022/08/29 03:08:48;;;;;;;159.13;111.50;;;;;;;;;;5023424;28;20591;-71
2022/08/29 03:11:14;;;;;;;214.52;136.70;;;;;;;;;;5022158;28;20212;-72
2022/08/29 03:13:40;;;;;;;240.00;142.30;;;;;;;;;;5018057;28;20231;-71
2022/08/29 03:16:07;;;;;;;317.47;172.10;;;;;;;;;;5015307;28;20216;-71
2022/08/29 03:18:33;;;;;;;320.70;170.83;;;;;;;;;;5013181;28;20318;-72
2022/08/29 03:20:59;;;;;;;273.13;145.70;;;;;;;;;;5024034;28;20263;-71
2022/08/29 03:23:25;;;;;;;324.73;169.43;;;;;;;;;;5015619;28;20307;-71
2022/08/29 03:25:51;;;;;;;318.20;166.47;;;;;;;;;;5016511;28;20299;-71
2022/08/29 03:28:17;;;;;;;292.10;156.80;;;;;;;;;;5018983;28;20223;-73
2022/08/29 03:30:43;;;;;;;300.73;165.17;;;;;;;;;;5016793;28;20188;-71
2022/08/29 03:33:09;;;;;;;310.60;165.93;;;;;;;;;;5020657;28;20669;-73
2022/08/29 03:35:35;;;;;;;365.00;192.27;;;;;;;;;;5015077;28;20250;-72
2022/08/29 03:38:01;;;;;;;322.00;174.70;;;;;;;;;;5013730;28;20278;-71
2022/08/29 03:40:27;;;;;;;309.50;162.57;;;;;;;;;;5016743;28;20209;-71
2022/08/29 03:42:53;;;;;;;282.77;153.83;;;;;;;;;;5013584;28;20236;-71
2022/08/29 03:45:20;;;;;;;303.10;167.77;;;;;;;;;;5016691;28;20180;-71
2022/08/29 03:47:46;;;;;;;304.43;164.67;;;;;;;;;;5016866;28;20326;-73
2022/08/29 03:50:13;;;;;;;302.47;161.90;;;;;;;;;;5015656;28;20813;-71
2022/08/29 03:52:39;;;;;;;324.50;173.37;;;;;;;;;;5015841;28;20490;-72
2022/08/29 03:55:06;;;;;;;324.40;173.27;;;;;;;;;;5016987;28;20299;-72
2022/08/29 03:57:33;;;;;;;312.03;164.53;;;;;;;;;;5017274;28;20208;-71
2022/08/29 04:00:00;;;;;;;300.37;160.30;;;;;;;;;;5016533;28;20223;-71
2022/08/29 04:02:26;;;;;;;334.43;174.30;;;;;;;;;;5017312;28;20252;-71
2022/08/29 04:05:07;;;;;;;291.13;152.23;;;;;;;;;;5016303;28;20224;-71
2022/08/29 04:07:39;;;;;;;351.33;184.63;;;;;;;;;;5015788;28;20369;-69
2022/08/29 04:10:05;;;;;;;290.50;151.43;;;;;;;;;;5016586;28;20247;-69
2022/08/29 04:12:31;;;;;;;337.17;179.17;;;;;;;;;;5018189;28;20259;-69
2022/08/29 04:14:57;;;;;;;260.27;149.00;;;;;;;;;;5021007;28;20296;-69
2022/08/29 04:17:23;;;;;;;319.03;169.80;;;;;;;;;;5014907;28;20219;-69
2022/08/29 04:19:49;;;;;;;333.17;173.20;;;;;;;;;;5011220;28;20281;-70
2022/08/29 04:22:15;;;;;;;294.10;157.30;;;;;;;;;;5016061;28;20228;-71
2022/08/29 04:24:41;;;;;;;332.63;176.87;;;;;;;;;;5011451;28;20220;-70
2022/08/29 04:27:07;;;;;;;276.47;151.23;;;;;;;;;;5019901;28;20204;-69
2022/08/29 04:29:33;;;;;;;282.17;154.73;;;;;;;;;;5019197;28;20219;-69
2022/08/29 04:31:59;;;;;;;290.37;159.50;;;;;;;;;;5013051;28;20277;-73
2022/08/29 04:34:26;;;;;;;287.93;158.40;;;;;;;;;;5019094;28;20212;-72
2022/08/29 04:36:52;;;;;;;304.13;164.43;;;;;;;;;;5020124;28;20945;-71
2022/08/29 04:39:18;;;;;;;290.33;159.33;;;;;;;;;;5018525;28;20211;-71
2022/08/29 04:41:44;;;;;;;297.17;162.23;;;;;;;;;;5013897;28;20230;-74
2022/08/29 04:44:11;;;;;;;294.60;154.77;;;;;;;;;;5016552;28;20211;-71
2022/08/29 04:46:38;;;;;;;258.67;137.37;;;;;;;;;;5014825;28;20593;-72
2022/08/29 04:49:04;;;;;;;291.00;151.20;;;;;;;;;;5017670;28;20226;-70
2022/08/29 04:51:29;;;;;;;302.00;161.50;;;;;;;;;;5015290;28;20192;-71
2022/08/29 04:53:55;;;;;;;290.37;158.10;;;;;;;;;;5016985;28;20617;-71
2022/08/29 04:56:21;;;;;;;302.93;165.63;;;;;;;;;;5019326;28;20232;-71
2022/08/29 04:58:49;;;;;;;296.27;154.90;;;;;;;;;;5030843;28;20667;-73
2022/08/29 05:01:16;;;;;;;254.40;136.30;;;;;;;;;;5016422;28;20240;-71
2022/08/29 05:03:42;;;;;;;294.67;155.43;;;;;;;;;;5014882;28;20183;-72
2022/08/29 05:06:10;;;;;;;256.80;141.30;;;;;;;;;;5016540;28;20597;-72
2022/08/29 05:08:37;;;;;;;316.80;165.27;;;;;;;;;;5015205;28;22064;-71
2022/08/29 05:11:05;;;;;;;282.40;153.65;;;;;;;;;;5014294;28;20715;-71
2022/08/29 05:13:31;;;;;;;300.00;158.03;;;;;;;;;;5014773;28;20226;-72
2022/08/29 05:15:57;;;;;;;286.37;150.53;;;;;;;;;;5015647;28;20239;-73
2022/08/29 05:18:23;;;;;;;313.37;160.07;;;;;;;;;;5010566;28;20235;-71
2022/08/29 05:20:49;;;;;;;325.00;168.73;;;;;;;;;;5012197;28;20207;-72
2022/08/29 05:23:16;;;;;;;274.77;148.67;;;;;;;;;;5014503;28;20728;-71
2022/08/29 05:25:43;;;;;;;322.63;166.10;;;;;;;;;;5017051;28;20208;-72
2022/08/29 05:28:10;;;;;;;254.20;140.73;;;;;;;;;;5017334;28;20850;-71
2022/08/29 05:30:37;;;;;;;268.43;146.53;;;;;;;;;;5018029;28;20250;-69
2022/08/29 05:33:03;;;;;;;277.07;154.60;;;;;;;;;;5021894;28;20184;-70
2022/08/29 05:35:29;;;;;;;301.53;167.00;;;;;;;;;;5020286;28;20778;-70
2022/08/29 05:37:55;;;;;;;528.03;271.30;;;;;;;;;;5007309;28;20584;-73
2022/08/29 05:40:21;;;;;;;375.60;200.77;;;;;;;;;;5000764;28;20223;-71
2022/08/29 05:42:47;;;;;;;328.80;167.73;;;;;;;;;;5010354;28;22182;-73
2022/08/29 05:45:13;;;;;;;310.97;166.10;;;;;;;;;;5010163;28;20207;-70
2022/08/29 05:47:39;;;;;;;321.63;169.87;;;;;;;;;;5011023;28;20326;-70
2022/08/29 05:50:06;;;;;;;296.40;163.07;;;;;;;;;;5008535;28;20612;-70
2022/08/29 05:52:32;;;;;;;346.97;186.13;;;;;;;;;;5012925;28;20209;-72
2022/08/29 05:54:59;;;;;;;318.50;176.60;;;;;;;;;;5008490;28;20218;-71
2022/08/29 05:57:24;;;;;;;329.33;181.23;;;;;;;;;;5004678;28;20342;-70
2022/08/29 05:59:51;;;;;;;302.30;165.00;;;;;;;;;;5008170;28;20633;-70
2022/08/29 06:02:18;;;;;;;313.63;175.13;;;;;;;;;;5004857;28;20212;-71
2022/08/29 06:04:44;;;;;;;382.17;203.80;;;;;;;;;;5004123;28;20216;-74
2022/08/29 06:07:11;;;;;;;531.83;271.93;;;;;;;;;;5001483;28;20223;-73
2022/08/29 06:09:37;;;;;;;341.20;184.80;;;;;;;;;;5001377;28;20590;-79
2022/08/29 06:12:04;;;;;;;298.63;167.60;;;;;;;;;;5014721;28;20494;-76
2022/08/29 06:14:30;;;;;;;313.20;178.70;;;;;;;;;;5012093;28;20223;-78
2022/08/29 06:16:56;;;;;;;311.60;172.37;;;;;;;;;;5019709;28;20224;-82
2022/08/29 06:19:22;;;;;;;259.63;150.53;;;;;;;;;;5017639;28;20228;-73
2022/08/29 06:21:48;;;;;;;289.60;161.00;;;;;;;;;;5021497;28;20280;-76
2022/08/29 06:24:14;;;;;;;317.03;173.53;;;;;;;;;;5007427;28;20188;-73
2022/08/29 06:26:40;;;;;;;287.60;165.07;;;;;;;;;;5020410;28;20215;-74
2022/08/29 06:29:08;;;;;;;312.27;177.50;;;;;;;;;;5015667;28;20680;-75
2022/08/29 06:31:34;;;;;;;303.40;170.27;;;;;;;;;;5016139;28;20219;-74
2022/08/29 06:34:01;;;;;;;303.60;171.07;;;;;;;;;;5015790;28;20216;-75
2022/08/29 06:36:27;;;;;;;315.70;179.13;;;;;;;;;;5014131;28;20264;-77
2022/08/29 06:38:57;;;;;;;304.40;169.97;;;;;;;;;;5008987;28;20243;-61
2022/08/29 06:41:24;;;;;;;347.13;193.83;;;;;;;;;;5012583;28;20673;-61
2022/08/29 06:43:50;;;;;;;315.50;176.10;;;;;;;;;;5010683;28;20219;-61
2022/08/29 06:46:29;;;;;;;283.13;162.00;;;;;;;;;;5012267;28;20222;-61
2022/08/29 06:48:56;;;;;;;294.30;167.47;;;;;;;;;;5018606;28;20731;-61
2022/08/29 06:51:23;;;;;;;287.20;163.93;;;;;;;;;;5018013;28;20641;-61
2022/08/29 06:53:49;;;;;;;298.07;168.70;;;;;;;;;;5015776;28;20872;-61
2022/08/29 06:56:15;;;;;;;374.97;204.43;;;;;;;;;;5014591;28;20242;-62
2022/08/29 06:58:41;;;;;;;293.33;165.57;;;;;;;;;;5022044;28;20215;-61
2022/08/29 07:01:07;;;;;;;293.50;172.53;;;;;;;;;;5017150;28;20211;-62
2022/08/29 07:03:33;;;;;;;312.70;179.20;;;;;;;;;;5019686;28;20188;-62
2022/08/29 07:05:59;;;;;;;293.27;170.97;;;;;;;;;;5025118;28;20188;-62
2022/08/29 07:08:25;;;;;;;347.90;189.57;;;;;;;;;;5016158;28;20277;-61
2022/08/29 07:10:51;;;;;;;320.93;178.93;;;;;;;;;;5021193;28;20698;-61
2022/08/29 07:13:17;;;;;;;302.87;169.33;;;;;;;;;;5018056;28;20248;-61
2022/08/29 07:15:43;;;;;;;329.00;179.07;;;;;;;;;;5023232;28;20221;-61
2022/08/29 07:18:09;;;;;;;378.65;209.65;;;;;;;;;;5012523;28;20235;-61
2022/08/29 07:20:38;;;;;;;353.17;196.10;;;;;;;;;;5011950;28;20637;-77
2022/08/29 07:23:05;;;;;;;290.05;163.30;;;;;;;;;;5016281;28;20270;-75
2022/08/29 07:25:31;;;;;;;401.42;216.32;;;;;;;;;;5017249;28;23285;-75
2022/08/29 07:27:56;;;;;;;311.50;174.00;;;;;;;;;;5005900;28;20767;-75
2022/08/29 07:30:22;;;;;;;291.90;173.00;;;;;;;;;;5015392;28;20263;-77
2022/08/29 07:32:48;;;;;;;312.58;182.23;;;;;;;;;;5009908;28;20212;-75
2022/08/29 07:35:15;;;;;;;316.58;184.48;;;;;;;;;;5029986;28;20219;-77
2022/08/29 07:37:42;;;;;;;324.35;187.65;;;;;;;;;;5018360;28;20216;-73
2022/08/29 07:40:09;;;;;;;310.38;179.70;;;;;;;;;;5010540;28;20224;-74
2022/08/29 07:42:35;;;;;;;348.83;199.27;;;;;;;;;;5011843;28;20258;-74
2022/08/29 07:45:01;;;;;;;290.70;167.82;;;;;;;;;;5017178;28;20192;-77
2022/08/29 07:47:27;;;;;;;382.90;205.13;;;;;;;;;;5011762;28;20275;-78
2022/08/29 07:49:53;;;;;;;303.17;173.40;;;;;;;;;;5016088;28;20222;-78
2022/08/29 07:52:19;;;;;;;361.67;202.43;;;;;;;;;;5016100;28;20227;-77
2022/08/29 07:54:45;;;;;;;350.65;194.55;;;;;;;;;;5014104;28;20875;-77
2022/08/29 07:57:11;;;;;;;338.83;192.07;;;;;;;;;;5011280;28;20264;-74
2022/08/29 07:59:37;;;;;;;291.10;170.27;;;;;;;;;;5018097;28;20223;-77
2022/08/29 08:02:03;;;;;;;340.55;190.13;;;;;;;;;;5020821;28;20208;-76
2022/08/29 08:04:29;;;;;;;325.50;186.07;;;;;;;;;;5009425;28;20217;-78
2022/08/29 08:06:55;;;;;;;352.73;196.63;;;;;;;;;;5004966;28;20231;-77
2022/08/29 08:09:21;;;;;;;349.17;204.68;;;;;;;;;;5007341;28;20197;-77
2022/08/29 08:11:47;;;;;;;380.75;211.68;;;;;;;;;;5008918;28;20211;-78
2022/08/29 08:14:13;;;;;;;316.63;177.18;;;;;;;;;;5012159;28;20216;-77
2022/08/29 08:16:40;;;;;;;322.10;184.35;;;;;;;;;;5014601;28;20547;-77
2022/08/29 08:19:06;;;;;;;310.52;177.02;;;;;;;;;;5017271;28;20266;-77
2022/08/29 08:21:32;;;;;;;354.65;205.68;;;;;;;;;;5008057;28;20184;-77
2022/08/29 08:23:58;;;;;;;336.70;198.68;;;;;;;;;;5011605;28;20184;-78
2022/08/29 08:26:24;;;;;;;392.77;222.27;;;;;;;;;;5015472;28;20225;-79
2022/08/29 08:28:50;;;;;;;355.27;201.93;;;;;;;;;;5011500;28;20716;-77
2022/08/29 08:31:16;;;;;;;382.10;218.02;;;;;;;;;;5014174;28;20208;-76
2022/08/29 08:33:43;;;;;;;351.30;202.15;;;;;;;;;;5013030;28;20204;-79
2022/08/29 08:36:15;;;;;;;339.13;199.60;;;;;;;;;;5016715;28;20188;-82
2022/08/29 08:38:41;;;;;;;316.83;179.43;;;;;;;;;;5015579;23;20233;-53
2022/08/29 08:41:16;;;;;;;282.10;163.32;;;;;;;;;;4989665;28;20217;-53
2022/08/29 08:43:49;;;;;;;288.83;167.80;;;;;;;;;;4990069;28;20624;-53
2022/08/29 08:46:16;;;;;;;280.45;164.05;;;;;;;;;;4990148;28;20636;-53
2022/08/29 08:48:42;;;;;;;291.42;170.63;;;;;;;;;;4989955;28;20409;-53
2022/08/29 08:51:17;;;;;;;283.17;164.93;;;;;;;;;;4990499;28;20190;-53
2022/08/29 08:53:46;;;;;;;323.98;182.48;;;;;;;;;;4989592;28;20236;-53
2022/08/29 08:56:14;;;;;;;283.10;165.33;;;;;;;;;;4989819;28;20260;-53
2022/08/29 08:58:50;;;;;;;300.65;170.20;;;;;;;;;;4990121;28;20593;-53
2022/08/29 09:01:26;;;;;;;272.42;160.07;;;;;;;;;;4990669;28;20499;-53
2022/08/29 09:04:11;;;;;;;299.70;170.70;;;;;;;;;;4989460;28;20215;-53
2022/08/29 09:06:57;;;;;;;302.00;175.95;;;;;;;;;;4989998;28;20305;-53
2022/08/29 09:09:41;;;;;;;287.77;166.52;;;;;;;;;;4989678;28;20189;-53
2022/08/29 09:12:16;;;;;;;313.52;181.30;;;;;;;;;;4990065;28;20233;-53
2022/08/29 09:15:06;;;;;;;308.00;176.88;;;;;;;;;;4989866;28;20709;-52
2022/08/29 09:17:40;;;;;;;312.63;181.93;;;;;;;;;;4977034;28;20225;-53
2022/08/29 09:20:08;;;;;;;312.02;182.93;;;;;;;;;;4989070;28;20283;-53
2022/08/29 09:22:35;;;;;;;308.63;179.57;;;;;;;;;;4989346;28;20220;-53
2022/08/29 09:25:04;;;;;;;324.17;186.60;;;;;;;;;;4989165;28;20228;-53
2022/08/29 09:27:32;;;;;;;309.27;184.95;;;;;;;;;;4989759;28;20523;-53
2022/08/29 09:30:13;;;;;;;311.70;182.25;;;;;;;;;;4990402;28;20574;-53
2022/08/29 09:32:50;;;;;;;300.70;174.80;;;;;;;;;;4989493;28;20272;-53
2022/08/29 09:35:18;;;;;;;303.63;177.47;;;;;;;;;;4989559;28;20251;-54
2022/08/29 09:37:54;;;;;;;311.83;182.63;;;;;;;;;;4989519;28;20577;-53
2022/08/29 09:40:20;;;;;;;326.30;187.50;;;;;;;;;;4989194;28;20243;-53
2022/08/29 09:42:51;;;;;;;318.20;183.75;;;;;;;;;;4989662;28;20722;-53
2022/08/29 09:45:19;;;;;;;318.67;184.82;;;;;;;;;;4989602;28;20200;-54
2022/08/29 09:47:45;;;;;;;327.90;188.00;;;;;;;;;;4989308;28;20220;-53
2022/08/29 09:50:17;;;;;;;336.38;188.93;;;;;;;;;;4988891;28;20221;-53
2022/08/29 09:52:51;;;;;;;319.70;184.23;;;;;;;;;;4989451;28;20225;-53
2022/08/29 09:55:17;;;;;;;320.50;184.25;;;;;;;;;;4988959;28;20224;-53
2022/08/29 09:57:48;;;;;;;328.55;188.88;;;;;;;;;;4988808;28;20588;-53
2022/08/29 10:00:17;;;;;;;339.75;194.55;;;;;;;;;;4972017;28;20673;-54
2022/08/29 10:02:43;;;;;;;331.58;184.15;;;;;;;;;;4988470;28;20213;-53
2022/08/29 10:05:24;;;;;;;336.30;192.10;;;;;;;;;;4988630;28;20567;-53
2022/08/29 10:07:51;;;;;;;366.13;210.30;;;;;;;;;;4983007;28;20708;-53
2022/08/29 10:10:22;;;;;;;343.05;199.27;;;;;;;;;;4988640;28;20216;-53
2022/08/29 10:12:57;;;;;;;340.55;194.38;;;;;;;;;;4989033;28;20229;-53
2022/08/29 10:15:29;;;;;;;346.05;197.20;;;;;;;;;;4989222;28;20259;-53
2022/08/29 10:18:22;;;;;;;352.27;198.27;;;;;;;;;;4989096;28;20205;-53
2022/08/29 10:20:51;;;;;;;341.77;197.00;;;;;;;;;;4988850;28;20221;-53
2022/08/29 10:23:21;;;;;;;333.35;190.73;;;;;;;;;;4988766;28;20737;-54
2022/08/29 10:25:47;;;;;;;331.67;190.27;;;;;;;;;;4989059;28;20300;-53
2022/08/29 10:28:30;;;;;;;306.63;179.27;;;;;;;;;;4989159;28;20752;-54
2022/08/29 10:31:25;;;;;;;333.92;193.60;;;;;;;;;;4989192;28;20209;-53
2022/08/29 10:34:00;;;;;;;332.05;189.38;;;;;;;;;;4971556;28;20221;-53
2022/08/29 10:36:26;;;;;;;344.27;197.32;;;;;;;;;;4989138;28;20180;-53
2022/08/29 10:38:57;;;;;;;328.42;189.00;;;;;;;;;;4988809;28;20205;-53
2022/08/29 10:41:32;;;;;;;325.58;189.15;;;;;;;;;;4988742;28;20217;-53
2022/08/29 10:44:07;;;;;;;340.10;196.43;;;;;;;;;;4988763;28;20278;-53
2022/08/29 10:46:42;;;;;;;344.17;196.43;;;;;;;;;;4988788;28;20689;-52
2022/08/29 10:49:21;;;;;;;335.65;192.48;;;;;;;;;;4988056;28;20244;-53
2022/08/29 10:51:53;;;;;;;334.45;194.77;;;;;;;;;;4986744;28;20228;-52
2022/08/29 10:54:25;;;;;;;334.08;192.23;;;;;;;;;;4989009;28;20272;-53
2022/08/29 10:56:51;;;;;;;334.20;194.90;;;;;;;;;;4989003;28;20205;-53
2022/08/29 10:59:31;;;;;;;349.23;204.85;;;;;;;;;;4988535;28;20226;-53
2022/08/29 11:01:59;;;;;;;350.95;204.40;;;;;;;;;;4989635;28;20221;-53
2022/08/29 11:04:45;;;;;;;349.00;201.35;;;;;;;;;;4989308;28;20224;-53
2022/08/29 11:07:16;;;;;;;343.55;191.10;;;;;;;;;;4988651;28;20298;-53
2022/08/29 11:09:46;;;;;;;341.92;196.45;;;;;;;;;;4990735;28;20173;-54
2022/08/29 11:12:15;;;;;;;341.27;199.75;;;;;;;;;;4992727;28;20541;-54
2022/08/29 11:14:51;;;;;;;351.02;208.18;;;;;;;;;;4991957;28;20256;-53
2022/08/29 11:17:18;;;;;;;364.95;215.98;;;;;;;;;;4974737;28;20685;-53
2022/08/29 11:20:10;;;;;;;347.42;204.38;;;;;;;;;;4991399;28;20236;-53
2022/08/29 11:22:39;;;;;;;354.73;206.93;;;;;;;;;;4992022;28;20220;-53
2022/08/29 11:25:16;;;;;;;367.90;214.85;;;;;;;;;;4991456;28;20275;-53
2022/08/29 11:28:02;;;;;;;348.70;205.20;;;;;;;;;;4991871;28;20174;-53
2022/08/29 11:30:46;;;;;;;365.02;213.80;;;;;;;;;;4991855;28;20623;-53
2022/08/29 11:33:12;;;;;;;360.20;209.35;;;;;;;;;;4992156;28;20169;-53
2022/08/29 11:35:38;;;;;;;341.30;202.95;;;;;;;;;;4991385;28;20308;-54
2022/08/29 11:38:12;;;;;;;358.08;204.57;;;;;;;;;;4991198;28;20225;-53
2022/08/29 11:40:47;;;;;;;347.25;204.25;;;;;;;;;;4991492;28;20221;-53
2022/08/29 11:43:17;;;;;;;366.00;209.00;;;;;;;;;;4991743;28;20304;-53
2022/08/29 11:45:43;;;;;;;363.77;207.18;;;;;;;;;;4973141;28;20189;-54
2022/08/29 11:48:09;;;;;;;359.33;211.05;;;;;;;;;;4973204;28;20174;-54
2022/08/29 11:50:36;;;;;;;358.30;206.98;;;;;;;;;;4972214;28;20253;-53
2022/08/29 11:53:11;;;;;;;341.73;191.43;;;;;;;;;;4990842;28;20305;-53
2022/08/29 11:55:41;;;;;;;351.05;201.15;;;;;;;;;;4991161;28;20209;-53
2022/08/29 11:58:27;;;;;;;334.55;195.38;;;;;;;;;;4991328;28;20217;-52
2022/08/29 12:00:57;;;;;;;342.33;198.48;;;;;;;;;;4941983;28;20657;-52
2022/08/29 12:03:32;;;;;;;347.40;204.63;;;;;;;;;;4991529;28;20194;-53
2022/08/29 12:06:02;;;;;;;336.75;199.95;;;;;;;;;;4972030;28;20298;-54
2022/08/29 12:08:32;;;;;;;333.58;196.73;;;;;;;;;;4971579;28;20222;-54
2022/08/29 12:10:59;;;;;;;322.30;184.10;;;;;;;;;;4974500;28;20296;-52
2022/08/29 12:13:43;;;;;;;364.45;212.13;;;;;;;;;;4976879;28;20217;-53
2022/08/29 12:16:09;;;;;;;331.63;187.65;;;;;;;;;;4987818;28;20249;-53
2022/08/29 12:18:39;;;;;;;334.77;200.57;;;;;;;;;;4972222;28;20278;-54
2022/08/29 12:21:30;;;;;;;346.30;205.85;;;;;;;;;;4987110;28;20166;-53
2022/08/29 12:23:56;;;;;;;337.25;195.05;;;;;;;;;;4983983;28;20293;-54
2022/08/29 12:26:45;;;;;;;336.23;193.70;;;;;;;;;;4991031;28;20213;-53
2022/08/29 12:29:23;;;;;;;323.13;184.13;;;;;;;;;;4990745;28;20233;-53
2022/08/29 12:32:02;;;;;;;329.85;185.32;;;;;;;;;;4990985;28;20271;-53
2022/08/29 12:34:49;;;;;;;340.92;195.57;;;;;;;;;;4990226;28;20217;-54
2022/08/29 12:37:24;;;;;;;353.83;196.20;;;;;;;;;;4990842;28;20311;-53
2022/08/29 12:39:59;;;;;;;357.98;196.45;;;;;;;;;;4990454;28;20229;-53
2022/08/29 12:42:25;;;;;;;349.30;200.32;;;;;;;;;;4991283;28;20236;-54
2022/08/29 12:45:10;;;;;;;354.25;203.75;;;;;;;;;;4991264;28;20213;-53
2022/08/29 12:47:40;;;;;;;355.02;205.80;;;;;;;;;;4991168;28;20299;-53
2022/08/29 12:50:13;;;;;;;352.08;200.90;;;;;;;;;;4990513;28;20228;-53
2022/08/29 12:52:39;;;;;;;360.65;207.43;;;;;;;;;;4990263;28;20531;-53
2022/08/29 12:55:18;;;;;;;353.65;209.15;;;;;;;;;;4990055;28;20722;-53
2022/08/29 12:57:46;;;;;;;350.63;206.90;;;;;;;;;;4990241;28;20187;-53
2022/08/29 13:00:23;;;;;;;353.45;206.43;;;;;;;;;;4990796;28;20570;-53
2022/08/29 13:02:57;;;;;;;357.98;209.65;;;;;;;;;;4990237;28;20217;-53
2022/08/29 13:05:23;;;;;;;351.17;203.30;;;;;;;;;;4989874;28;20225;-53
2022/08/29 13:07:57;;;;;;;382.27;220.60;;;;;;;;;;4989811;28;20217;-53
2022/08/29 13:10:24;;;;;;;353.10;204.18;;;;;;;;;;4989902;28;20213;-53
2022/08/29 13:12:50;;;;;;;351.10;201.73;;;;;;;;;;4990107;28;20213;-53
2022/08/29 13:15:28;;;;;;;341.60;195.75;;;;;;;;;;4979763;28;20544;-54
2022/08/29 13:17:54;;;;;;;371.45;212.82;;;;;;;;;;4970772;28;20205;-54
2022/08/29 13:20:47;;;;;;;349.35;198.10;;;;;;;;;;4970185;28;20551;-54
2022/08/29 13:23:14;;;;;;;360.48;202.90;;;;;;;;;;4969919;28;20305;-52
2022/08/29 13:25:52;;;;;;;365.95;207.50;;;;;;;;;;4970500;28;20233;-53
2022/08/29 13:28:25;;;;;;;350.65;198.52;;;;;;;;;;4970442;28;20229;-54
2022/08/29 13:31:07;;;;;;;335.80;194.95;;;;;;;;;;4988140;28;20834;-53
2022/08/29 13:33:34;;;;;;;355.65;203.23;;;;;;;;;;4988929;28;20252;-54
2022/08/29 13:36:00;;;;;;;359.88;210.00;;;;;;;;;;4990507;28;20638;-53
2022/08/29 13:38:27;;;;;;;345.60;208.93;;;;;;;;;;4989068;28;20316;-53
2022/08/29 13:40:57;;;;;;;347.88;201.45;;;;;;;;;;4989769;28;20217;-53
2022/08/29 13:43:28;;;;;;;365.42;209.00;;;;;;;;;;4989195;28;20225;-54
2022/08/29 13:46:03;;;;;;;361.63;209.65;;;;;;;;;;4989495;28;20228;-54
2022/08/29 13:48:29;;;;;;;349.98;215.18;;;;;;;;;;4989567;28;20579;-53
2022/08/29 13:50:55;;;;;;;365.73;220.60;;;;;;;;;;4989773;28;20173;-53
2022/08/29 13:53:21;;;;;;;356.80;215.85;;;;;;;;;;4989151;28;20716;-52
2022/08/29 13:55:47;;;;;;;357.55;217.45;;;;;;;;;;4988989;28;20209;-53
2022/08/29 13:58:13;;;;;;;346.67;197.23;;;;;;;;;;4989175;28;20224;-53
2022/08/29 14:00:39;;;;;;;358.13;212.45;;;;;;;;;;4989319;28;20165;-52
2022/08/29 14:03:07;;;;;;;357.20;206.75;;;;;;;;;;4989650;28;20182;-52
2022/08/29 14:05:34;;;;;;;356.73;204.55;;;;;;;;;;4988521;28;20585;-53
2022/08/29 14:08:00;;;;;;;351.33;207.15;;;;;;;;;;4989157;28;20721;-53